Terminal Aerodrome Forecast
Issued by NWS

Current Version | Previous Version | Text Only | Print | Product List | Glossary On
Versions: 1 2 3 4 5 6 7 8 9 10 11 12 13
000
FTUS42 KMLB 201100
TAFFPR
TAF
KFPR 201128Z 2012/2112 22004KT P6SM FEW250
     FM201400 30005KT P6SM SCT040 SCT250
     FM201700 09009KT P6SM VCTS SCT050CB SCT250
     FM202300 13007KT P6SM FEW060 SCT250=

USA.gov is the U.S. government's official web portal to all federal, state and local government web resources and services.